Villa Allende, Argentina
Current Conditions -  °F | °C
As of 3:00 PM on Saturday 20 Dec 2014 (Local Time) from SACO Reporting Station
Scattered Clouds Scattered Clouds  
Wind Chill: 75°   Ceiling: Unl
Heat Index: 75°   Visibility: 6mi
Dew Point: 54°   Wind: 15mph
Humidity: 47%   Direction: 180°S
Pressure: 29.68"   Gusts: NA
Location:  31.3°S, 64.3°W
Report Text: SACO 201800Z 18013KT 9999 SCT030 SCT10024/12 Q1005
Loading
Personal Weather Stations






























Interactive Weather Map New forecast layout! Learn more

10-Day Weather Forecast

Advertisements
Track Severe Weather on mobile